Portada
METAR-TAF:

METAR-TAF

Aeroports :

Emmen, Suïssa

latitud: 47-05-32N, longitud: 8-18-16E, altitud: 426 m

Observació

L'informe es va fer fa 16 minuts, a les 22:20 UTC
Vent 3 kt del Oest/Sud-Oest, variant entre Sud/Sud-Oest i Oest
Temperatura 3°C
Humitat 87%
Pressió 1018 hPa
Visibilitat 10 km o més
Cel cobert a una alçada de 7300 ft

METAR: LSME 062220Z AUTO 24003KT 210V280 9999NDV OVC073 03/01 Q1018 RMK

Hora: 23:36 (22:36 UTC)


TAF: manca

Observacions i pronòstics meteorològics de més de 4000 aeroports (METAR i TAF).

Les estacions disponibles són els punts grocs i vermells al mapa.

Posi el ratolí al punt desitjat per veure el nom de l'estació.

Feu clic per veure les observacions i els pronòstics meteorològics.

Per canviar el mapa: feu clic els botons verds amb una creu de color negre per apropar; al botó verd amb un guió per allunyar la imatge; o en les fletxes verdes per a mapes adjacents.


METAR-TAF: